Time;durP1;ratioP1;P1;durP2;ratioP2;P2;SDS_P1;SDS_P2;PMS_P1;PMS_P2;Temp;Humidity;BMP_temperature;BMP_pressure;BME280_temperature;BME280_humidity;BME280_pressure;Samples;Min_cycle;Max_cycle;Signal;HPM_P1;HPM_P2
2023/07/09 00:00:33;;;;;;;;;;;21.90;99.90;;;;;;4939355;28;20999;-78
2023/07/09 00:03:06;;;;;;;;;;;21.80;99.90;;;;;;4969593;28;19926;-77
2023/07/09 00:06:29;;;;;;;;;;;21.80;99.90;;;;;;4971484;28;19937;-76
2023/07/09 00:09:21;;;;;;;;;;;21.80;99.90;;;;;;4955995;28;19936;-77
2023/07/09 00:12:32;;;;;;;;;;;21.70;99.90;;;;;;4971789;28;19921;-76
2023/07/09 00:15:57;;;;;;;;;;;21.90;99.90;;;;;;4995296;28;20406;-76
2023/07/09 00:19:09;;;;;;;;;;;21.60;99.90;;;;;;5012884;28;20047;-78
2023/07/09 00:31:43;;;;;;;;;;;21.40;99.90;;;;;;5032699;28;19925;-76
2023/07/09 00:35:15;;;;;;;;;;;21.40;99.90;;;;;;5020173;28;19929;-76
2023/07/09 00:38:00;;;;;;;;;;;21.40;99.90;;;;;;5033569;28;19979;-78
2023/07/09 00:40:54;;;;;;;;;;;21.30;99.90;;;;;;5033926;28;19932;-76
2023/07/09 00:44:14;;;;;;;;;;;21.30;99.90;;;;;;5035970;28;20383;-76
2023/07/09 00:56:44;;;;;;;;;;;21.10;99.90;;;;;;5020186;28;19932;-76
2023/07/09 00:59:22;;;;;;;;;;;21.10;99.90;;;;;;5017304;28;20473;-76
2023/07/09 01:02:51;;;;;;;;;;;21.10;99.90;;;;;;5034664;28;20433;-77
2023/07/09 01:05:31;;;;;;;;;;;21.00;99.90;;;;;;4993437;28;19926;-77
2023/07/09 01:08:44;;;;;;;;;;;21.00;99.90;;;;;;4990699;28;19933;-76
2023/07/09 01:11:50;;;;;;;;;;;21.00;99.90;;;;;;4991127;28;19929;-78
2023/07/09 01:14:51;;;;;;;;;;;20.90;99.90;;;;;;4955853;28;20344;-77
2023/07/09 01:17:54;;;;;;;;;;;20.90;99.90;;;;;;4972139;28;20404;-77
2023/07/09 01:20:46;;;;;;;;;;;20.80;99.90;;;;;;4993721;28;19940;-76
2023/07/09 01:26:47;;;;;;;;;;;20.80;99.90;;;;;;4975115;28;21311;-77
2023/07/09 01:32:33;;;;;;;;;;;20.70;99.90;;;;;;4994556;28;20024;-76
2023/07/09 01:35:46;;;;;;;;;;;20.70;99.90;;;;;;4993010;28;19925;-76
2023/07/09 01:38:33;;;;;;;;;;;20.70;99.90;;;;;;5017830;28;20874;-76
2023/07/09 01:42:21;;;;;;;;;;;20.60;99.90;;;;;;5034639;28;19921;-77
2023/07/09 01:44:51;;;;;;;;;;;20.60;99.90;;;;;;5034815;28;19924;-76
2023/07/09 01:47:57;;;;;;;;;;;20.60;99.90;;;;;;5016951;28;20019;-76
2023/07/09 01:51:21;;;;;;;;;;;20.50;99.90;;;;;;5034654;28;21703;-78
2023/07/09 01:54:24;;;;;;;;;;;21.20;99.90;;;;;;5049792;28;19939;-76
2023/07/09 01:57:34;;;;;;;;;;;20.50;99.90;;;;;;5000007;28;19935;-76
2023/07/09 02:00:41;;;;;;;;;;;20.50;99.90;;;;;;5018762;28;20128;-77
2023/07/09 02:03:35;;;;;;;;;;;20.40;99.90;;;;;;5034082;28;19925;-77
2023/07/09 02:06:10;;;;;;;;;;;20.40;99.90;;;;;;5033844;28;19925;-77
2023/07/09 02:12:27;;;;;;;;;;;20.40;99.90;;;;;;5031306;28;19925;-77
2023/07/09 02:15:30;;;;;;;;;;;20.30;99.90;;;;;;5014916;28;19936;-78
2023/07/09 02:18:25;;;;;;;;;;;20.30;99.90;;;;;;5034436;28;19943;-77
2023/07/09 02:21:34;;;;;;;;;;;21.40;99.90;;;;;;5015184;28;19928;-77
2023/07/09 02:24:30;;;;;;;;;;;20.30;99.90;;;;;;5034031;28;19929;-77
2023/07/09 02:30:14;;;;;;;;;;;20.30;99.90;;;;;;5016618;28;19920;-76
2023/07/09 02:36:19;;;;;;;;;;;20.20;99.90;;;;;;4999018;28;20448;-77
2023/07/09 02:39:43;;;;;;;;;;;20.20;99.90;;;;;;5032551;28;19939;-78
2023/07/09 02:43:10;;;;;;;;;;;20.20;99.90;;;;;;5031292;28;19967;-77
2023/07/09 02:45:54;;;;;;;;;;;20.10;99.90;;;;;;5031731;28;20366;-77
2023/07/09 02:51:50;;;;;;;;;;;20.20;99.90;;;;;;5120161;27;19996;-73
2023/07/09 02:54:16;;;;;;;;;;;20.10;99.90;;;;;;5064805;27;19928;-74
2023/07/09 02:56:41;;;;;;;;;;;20.10;99.90;;;;;;5066842;27;20293;-73
2023/07/09 02:59:07;;;;;;;;;;;20.10;99.90;;;;;;5084010;27;19927;-72
2023/07/09 03:01:34;;;;;;;;;;;20.10;99.90;;;;;;5084589;27;20485;-73
2023/07/09 03:04:01;;;;;;;;;;;20.10;99.90;;;;;;5097153;27;20611;-73
2023/07/09 03:06:27;;;;;;;;;;;20.10;99.90;;;;;;5084710;27;20283;-73
2023/07/09 03:08:53;;;;;;;;;;;20.00;99.90;;;;;;5096014;27;19939;-72
2023/07/09 03:11:19;;;;;;;;;;;20.00;99.90;;;;;;5081147;27;22092;-71
2023/07/09 03:13:45;;;;;;;;;;;20.10;99.90;;;;;;5063905;27;19928;-72
2023/07/09 03:16:11;;;;;;;;;;;20.00;99.90;;;;;;5102107;27;19980;-73
2023/07/09 03:18:36;;;;;;;;;;;20.00;99.90;;;;;;5078915;28;19953;-73
2023/07/09 03:21:02;;;;;;;;;;;20.00;99.90;;;;;;5079499;27;19976;-73
2023/07/09 03:23:28;;;;;;;;;;;20.00;99.90;;;;;;5099735;27;19931;-74
2023/07/09 03:25:54;;;;;;;;;;;19.90;99.90;;;;;;5080621;27;20337;-76
2023/07/09 03:28:20;;;;;;;;;;;19.90;99.90;;;;;;5077937;27;19935;-74
2023/07/09 03:30:46;;;;;;;;;;;19.90;99.90;;;;;;5082622;27;19954;-76
2023/07/09 03:33:13;;;;;;;;;;;19.90;99.90;;;;;;5066914;27;19928;-75
2023/07/09 03:35:39;;;;;;;;;;;19.90;99.90;;;;;;5063561;27;19967;-75
2023/07/09 03:38:06;;;;;;;;;;;19.80;99.90;;;;;;5075651;27;20019;-76
2023/07/09 03:40:31;;;;;;;;;;;19.90;99.90;;;;;;5063181;27;20031;-76
2023/07/09 03:42:57;;;;;;;;;;;19.90;99.90;;;;;;5081499;27;19927;-76
2023/07/09 03:45:23;;;;;;;;;;;19.90;99.90;;;;;;5076628;27;19932;-76
2023/07/09 03:47:48;;;;;;;;;;;19.90;99.90;;;;;;5079299;27;19975;-74
2023/07/09 03:50:14;;;;;;;;;;;19.90;99.90;;;;;;5062511;27;19936;-74
2023/07/09 03:52:40;;;;;;;;;;;19.90;99.90;;;;;;5079517;27;19936;-73
2023/07/09 03:55:06;;;;;;;;;;;19.90;99.90;;;;;;5097420;27;21097;-73
2023/07/09 03:57:32;;;;;;;;;;;19.90;99.90;;;;;;5079559;27;19955;-74
2023/07/09 03:59:57;;;;;;;;;;;19.90;99.90;;;;;;5096416;27;19927;-73
2023/07/09 04:02:23;;;;;;;;;;;19.90;99.90;;;;;;5068968;28;20401;-75
2023/07/09 04:04:48;;;;;;;;;;;19.90;99.90;;;;;;5068743;28;20050;-74
2023/07/09 04:07:15;;;;;;;;;;;19.90;99.90;;;;;;5083447;28;19953;-76
2023/07/09 04:09:40;;;;;;;;;;;20.00;99.90;;;;;;5053132;28;19930;-75
2023/07/09 04:12:06;;;;;;;;;;;20.00;99.90;;;;;;5068092;27;19919;-74
2023/07/09 04:14:32;;;;;;;;;;;20.00;99.90;;;;;;5086818;28;19935;-74
2023/07/09 04:16:57;;;;;;;;;;;19.20;99.90;;;;;;5083479;27;20054;-74
2023/07/09 04:19:23;;;;;;;;;;;20.10;99.90;;;;;;5084196;28;19975;-74
2023/07/09 04:21:49;;;;;;;;;;;20.10;99.90;;;;;;5046367;28;19928;-73
2023/07/09 04:24:18;;;;;;;;;;;20.10;99.90;;;;;;5060673;28;19928;-74
2023/07/09 04:26:44;;;;;;;;;;;20.20;99.90;;;;;;5080897;27;19927;-73
2023/07/09 04:29:09;;;;;;;;;;;20.20;99.90;;;;;;5063714;28;20278;-72
2023/07/09 04:31:35;;;;;;;;;;;20.20;99.90;;;;;;5048482;28;19927;-73
2023/07/09 04:34:01;;;;;;;;;;;20.30;99.90;;;;;;5082029;28;19969;-74
2023/07/09 04:36:26;;;;;;;;;;;20.30;99.90;;;;;;5061696;28;19940;-74
2023/07/09 04:38:52;;;;;;;;;;;20.40;99.90;;;;;;5064565;28;19931;-73
2023/07/09 04:41:18;;;;;;;;;;;20.40;99.90;;;;;;5060119;28;19927;-73
2023/07/09 04:43:43;;;;;;;;;;;20.50;99.90;;;;;;5064299;28;19932;-73
2023/07/09 04:46:09;;;;;;;;;;;20.50;99.90;;;;;;5081698;28;20313;-73
2023/07/09 04:48:35;;;;;;;;;;;20.60;99.90;;;;;;5064886;28;19930;-72
2023/07/09 04:51:00;;;;;;;;;;;20.60;99.90;;;;;;5083131;27;19934;-74
2023/07/09 04:53:26;;;;;;;;;;;20.70;99.90;;;;;;5063854;28;19935;-75
2023/07/09 04:55:52;;;;;;;;;;;20.80;99.90;;;;;;5062236;28;19931;-74
2023/07/09 04:58:18;;;;;;;;;;;20.80;99.90;;;;;;5064707;28;20067;-76
2023/07/09 05:00:44;;;;;;;;;;;20.90;99.90;;;;;;5077794;27;19928;-75
2023/07/09 05:03:09;;;;;;;;;;;21.00;99.90;;;;;;5084592;28;20455;-75
2023/07/09 05:05:35;;;;;;;;;;;21.00;99.90;;;;;;5047979;28;20423;-74
2023/07/09 05:08:01;;;;;;;;;;;21.10;99.90;;;;;;5065099;28;19928;-75
2023/07/09 05:10:26;;;;;;;;;;;21.20;99.90;;;;;;5067561;28;20009;-75
2023/07/09 05:12:53;;;;;;;;;;;21.20;99.90;;;;;;5082574;28;19928;-75
2023/07/09 05:15:20;;;;;;;;;;;21.30;99.90;;;;;;5080505;28;20014;-75
2023/07/09 05:17:46;;;;;;;;;;;21.40;99.90;;;;;;5061557;28;19955;-75
2023/07/09 05:20:12;;;;;;;;;;;21.40;99.90;;;;;;5063430;28;19927;-75
2023/07/09 05:22:37;;;;;;;;;;;21.50;99.90;;;;;;5063121;28;19928;-75
2023/07/09 05:25:03;;;;;;;;;;;21.60;99.90;;;;;;5062025;28;19928;-75
2023/07/09 05:27:29;;;;;;;;;;;21.60;99.90;;;;;;5045710;28;20447;-75
2023/07/09 05:29:54;;;;;;;;;;;21.70;99.90;;;;;;5045764;28;19931;-76
2023/07/09 05:32:20;;;;;;;;;;;21.80;99.90;;;;;;5046819;28;19928;-74
2023/07/09 05:34:46;;;;;;;;;;;21.90;99.90;;;;;;5061199;28;19947;-76
2023/07/09 05:37:11;;;;;;;;;;;22.00;99.90;;;;;;5051142;28;19975;-75
2023/07/09 05:39:37;;;;;;;;;;;22.00;99.90;;;;;;5068390;28;19946;-75
2023/07/09 05:42:03;;;;;;;;;;;22.20;99.90;;;;;;5067148;28;19928;-75
2023/07/09 05:44:28;;;;;;;;;;;22.20;99.90;;;;;;5086973;28;19928;-76
2023/07/09 05:46:54;;;;;;;;;;;22.40;99.90;;;;;;5066179;28;20378;-76
2023/07/09 05:49:19;;;;;;;;;;;22.50;99.90;;;;;;5069655;28;19981;-75
2023/07/09 05:51:45;;;;;;;;;;;22.60;99.90;;;;;;5079969;28;20437;-72
2023/07/09 05:54:11;;;;;;;;;;;22.80;99.90;;;;;;5087099;27;20271;-76
2023/07/09 05:56:36;;;;;;;;;;;22.90;99.90;;;;;;5048262;28;20517;-77
2023/07/09 05:59:02;;;;;;;;;;;23.00;99.90;;;;;;5041822;28;19930;-76
2023/07/09 06:01:27;;;;;;;;;;;23.10;99.90;;;;;;5074605;28;20009;-75
2023/07/09 06:03:54;;;;;;;;;;;23.20;99.90;;;;;;5046205;28;20258;-76
2023/07/09 06:06:20;;;;;;;;;;;23.30;99.90;;;;;;5059993;28;19935;-76
2023/07/09 06:08:46;;;;;;;;;;;23.40;99.90;;;;;;5054990;28;19998;-77
2023/07/09 06:11:12;;;;;;;;;;;23.40;99.90;;;;;;5067184;28;19967;-76
2023/07/09 06:13:38;;;;;;;;;;;23.60;99.90;;;;;;5055799;28;20018;-77
2023/07/09 06:16:04;;;;;;;;;;;23.70;99.90;;;;;;5074942;27;19997;-75
2023/07/09 06:18:29;;;;;;;;;;;23.80;99.90;;;;;;5059895;28;19935;-75
2023/07/09 06:20:56;;;;;;;;;;;23.90;99.90;;;;;;5078899;27;19928;-75
2023/07/09 06:23:23;;;;;;;;;;;24.00;99.90;;;;;;5039946;28;22032;-77
2023/07/09 06:25:51;;;;;;;;;;;24.20;99.90;;;;;;5051473;28;19935;-74
2023/07/09 06:28:17;;;;;;;;;;;24.20;99.90;;;;;;5060161;28;20284;-75
2023/07/09 06:30:43;;;;;;;;;;;24.30;99.90;;;;;;5058173;28;20096;-76
2023/07/09 06:33:10;;;;;;;;;;;24.30;99.90;;;;;;5060170;28;19928;-77
2023/07/09 06:35:52;;;;;;;;;;;24.30;99.90;;;;;;5056638;28;20409;-77
2023/07/09 06:38:18;;;;;;;;;;;24.20;99.90;;;;;;5078184;28;20316;-76
2023/07/09 06:40:44;;;;;;;;;;;24.20;99.90;;;;;;5074308;28;20021;-78
2023/07/09 06:43:09;;;;;;;;;;;23.70;99.90;;;;;;5055967;28;19971;-76
2023/07/09 06:45:35;;;;;;;;;;;24.00;99.90;;;;;;5040257;28;20027;-77
2023/07/09 06:48:06;;;;;;;;;;;23.90;99.90;;;;;;5055590;28;19965;-77
2023/07/09 06:50:33;;;;;;;;;;;23.90;99.90;;;;;;5054303;28;19932;-76
2023/07/09 06:52:58;;;;;;;;;;;23.80;99.90;;;;;;5058094;28;19924;-77
2023/07/09 06:55:25;;;;;;;;;;;23.80;99.90;;;;;;5056434;28;19932;-78
2023/07/09 06:57:50;;;;;;;;;;;23.80;99.90;;;;;;5058351;28;21281;-77
2023/07/09 07:00:16;;;;;;;;;;;23.80;99.90;;;;;;5056928;28;19930;-77
2023/07/09 07:02:42;;;;;;;;;;;23.90;99.90;;;;;;5076165;28;19939;-77
2023/07/09 07:05:07;;;;;;;;;;;23.90;99.90;;;;;;5074629;28;20302;-75
2023/07/09 07:07:33;;;;;;;;;;;23.90;99.90;;;;;;5076933;28;19928;-76
2023/07/09 07:09:59;;;;;;;;;;;23.80;99.90;;;;;;5075028;28;20285;-76
2023/07/09 07:12:25;;;;;;;;;;;23.80;99.90;;;;;;5076214;28;19994;-77
2023/07/09 07:14:51;;;;;;;;;;;23.80;99.90;;;;;;5058837;28;19996;-77
2023/07/09 07:17:17;;;;;;;;;;;23.90;99.90;;;;;;5061899;28;20394;-77
2023/07/09 07:19:42;;;;;;;;;;;24.00;99.90;;;;;;5081857;28;20093;-76
2023/07/09 07:22:08;;;;;;;;;;;24.10;99.90;;;;;;5078386;28;19924;-77
2023/07/09 07:24:34;;;;;;;;;;;24.30;99.90;;;;;;5056698;28;19931;-78
2023/07/09 07:26:59;;;;;;;;;;;24.40;99.90;;;;;;5073205;28;19932;-76
2023/07/09 07:29:25;;;;;;;;;;;24.40;99.90;;;;;;5076236;28;20332;-76
2023/07/09 07:31:54;;;;;;;;;;;24.50;99.90;;;;;;5078190;28;19965;-77
2023/07/09 07:34:19;;;;;;;;;;;24.50;99.90;;;;;;5059453;28;20382;-75
2023/07/09 07:36:45;;;;;;;;;;;24.70;99.90;;;;;;5079615;28;20357;-76
2023/07/09 07:39:11;;;;;;;;;;;24.90;99.90;;;;;;5046726;28;19932;-75
2023/07/09 07:41:38;;;;;;;;;;;24.90;99.90;;;;;;5065005;28;19928;-76
2023/07/09 07:44:04;;;;;;;;;;;25.00;99.90;;;;;;5053763;28;19927;-75
2023/07/09 07:46:32;;;;;;;;;;;25.10;99.90;;;;;;5086217;27;19947;-76
2023/07/09 07:48:57;;;;;;;;;;;25.10;99.90;;;;;;5085905;27;20010;-78
2023/07/09 07:51:23;;;;;;;;;;;25.20;99.90;;;;;;5068921;28;19934;-76
2023/07/09 07:53:49;;;;;;;;;;;25.20;99.90;;;;;;5087511;27;20306;-77
2023/07/09 07:56:14;;;;;;;;;;;25.30;99.90;;;;;;5084498;28;19935;-76
2023/07/09 07:58:40;;;;;;;;;;;25.30;99.90;;;;;;5078687;27;19931;-75
2023/07/09 08:01:06;;;;;;;;;;;25.30;99.90;;;;;;5064250;28;19939;-75
2023/07/09 08:03:31;;;;;;;;;;;25.40;99.90;;;;;;5087879;28;21599;-76
2023/07/09 08:05:57;;;;;;;;;;;25.50;99.90;;;;;;5067929;28;19934;-77
2023/07/09 08:08:22;;;;;;;;;;;25.60;99.90;;;;;;5072963;28;19935;-76
2023/07/09 08:10:51;;;;;;;;;;;25.60;99.90;;;;;;5072679;28;19931;-76
2023/07/09 08:13:17;;;;;;;;;;;25.70;99.90;;;;;;5083590;28;19935;-75
2023/07/09 08:15:44;;;;;;;;;;;25.70;99.90;;;;;;5067964;28;20026;-76
2023/07/09 08:18:10;;;;;;;;;;;25.80;99.90;;;;;;5072504;28;20324;-76
2023/07/09 08:20:36;;;;;;;;;;;25.90;99.90;;;;;;5087621;28;19928;-76
2023/07/09 08:23:02;;;;;;;;;;;26.00;99.90;;;;;;5068753;28;20410;-77
2023/07/09 08:25:27;;;;;;;;;;;26.10;99.90;;;;;;5087700;28;19974;-76
2023/07/09 08:27:53;;;;;;;;;;;26.20;99.90;;;;;;5068694;28;19931;-77
2023/07/09 08:30:19;;;;;;;;;;;26.40;99.90;;;;;;5068501;28;19932;-76
2023/07/09 08:32:44;;;;;;;;;;;26.40;99.90;;;;;;5071801;28;19931;-77
2023/07/09 08:35:11;;;;;;;;;;;26.60;99.90;;;;;;5089426;28;19970;-74
2023/07/09 08:37:37;;;;;;;;;;;26.70;99.90;;;;;;5070029;28;20336;-76
2023/07/09 08:40:05;;;;;;;;;;;26.90;99.90;;;;;;5069375;28;19964;-76
2023/07/09 08:42:41;;;;;;;;;;;27.10;99.90;;;;;;5071684;28;20388;-77
2023/07/09 08:45:15;;;;;;;;;;;27.30;99.90;;;;;;5072034;28;19988;-75
2023/07/09 08:47:47;;;;;;;;;;;27.30;99.90;;;;;;5087864;28;19960;-77
2023/07/09 08:50:15;;;;;;;;;;;27.30;99.90;;;;;;5073704;28;19971;-76
2023/07/09 08:52:42;;;;;;;;;;;27.40;99.90;;;;;;5083935;28;19928;-77
2023/07/09 08:55:11;;;;;;;;;;;27.50;99.90;;;;;;5088659;28;19935;-77
2023/07/09 08:57:41;;;;;;;;;;;27.60;99.90;;;;;;5072389;28;19924;-76
2023/07/09 09:00:27;;;;;;;;;;;27.70;99.90;;;;;;5075356;28;19928;-77
2023/07/09 09:02:56;;;;;;;;;;;27.80;99.90;;;;;;5088764;28;19950;-77
2023/07/09 09:05:22;;;;;;;;;;;27.90;99.90;;;;;;5073747;28;19924;-76
2023/07/09 09:07:54;;;;;;;;;;;28.00;99.90;;;;;;5069492;28;19928;-76
2023/07/09 09:10:25;;;;;;;;;;;28.10;99.90;;;;;;5072337;28;19924;-77
2023/07/09 09:12:54;;;;;;;;;;;28.20;99.90;;;;;;5071535;28;20065;-78
2023/07/09 09:15:20;;;;;;;;;;;28.50;99.90;;;;;;5086341;28;19928;-76
2023/07/09 09:17:50;;;;;;;;;;;28.70;99.90;;;;;;5072584;28;19980;-76
2023/07/09 09:20:22;;;;;;;;;;;29.10;99.90;;;;;;5071636;28;19954;-77
2023/07/09 09:22:57;;;;;;;;;;;29.40;99.70;;;;;;5095290;28;19981;-76
2023/07/09 09:25:30;;;;;;;;;;;29.70;98.60;;;;;;5086550;28;20333;-77
2023/07/09 09:27:55;;;;;;;;;;;29.60;97.60;;;;;;5072195;28;20278;-76
2023/07/09 09:30:23;;;;;;;;;;;30.10;98.00;;;;;;5088493;28;19924;-78
2023/07/09 09:32:59;;;;;;;;;;;30.30;97.90;;;;;;5094774;28;20386;-78
2023/07/09 09:35:27;;;;;;;;;;;30.50;97.70;;;;;;5079239;28;19925;-77
2023/07/09 09:37:54;;;;;;;;;;;30.60;97.50;;;;;;5072383;28;19977;-78
2023/07/09 09:40:23;;;;;;;;;;;30.70;97.10;;;;;;5072725;28;19931;-76
2023/07/09 09:42:54;;;;;;;;;;;30.90;97.10;;;;;;5070741;28;19964;-77
2023/07/09 09:45:21;;;;;;;;;;;31.00;96.70;;;;;;5070844;28;20018;-78
2023/07/09 09:47:48;;;;;;;;;;;31.10;96.50;;;;;;5073305;28;19928;-76
2023/07/09 09:50:17;;;;;;;;;;;31.20;96.70;;;;;;5090879;28;20359;-77
2023/07/09 09:52:44;;;;;;;;;;;31.20;97.00;;;;;;5070768;28;20726;-77
2023/07/09 09:55:22;;;;;;;;;;;31.30;96.30;;;;;;5086586;28;19963;-78
2023/07/09 09:57:49;;;;;;;;;;;31.30;96.00;;;;;;5074391;28;19989;-76
2023/07/09 10:00:17;;;;;;;;;;;31.50;96.00;;;;;;5069067;28;19932;-76
2023/07/09 10:02:45;;;;;;;;;;;31.70;95.90;;;;;;5073265;28;20409;-77
2023/07/09 10:05:12;;;;;;;;;;;32.00;95.80;;;;;;5068810;28;20386;-76
2023/07/09 10:07:42;;;;;;;;;;;32.20;95.40;;;;;;5070504;28;19928;-76
2023/07/09 10:10:17;;;;;;;;;;;32.50;95.20;;;;;;5073744;28;19974;-76
2023/07/09 10:12:53;;;;;;;;;;;32.90;94.40;;;;;;5090378;28;19928;-76
2023/07/09 10:15:27;;;;;;;;;;;33.20;93.90;;;;;;5091921;28;20288;-76
2023/07/09 10:17:53;;;;;;;;;;;33.50;94.20;;;;;;5073506;28;19927;-78
2023/07/09 10:20:25;;;;;;;;;;;33.60;93.30;;;;;;5077576;28;19935;-76
2023/07/09 10:22:51;;;;;;;;;;;33.70;93.00;;;;;;5071828;28;19974;-76
2023/07/09 10:25:28;;;;;;;;;;;33.60;93.20;;;;;;5090707;28;19931;-76
2023/07/09 10:27:57;;;;;;;;;;;33.60;92.30;;;;;;5070535;28;19936;-77
2023/07/09 10:30:41;;;;;;;;;;;33.60;92.10;;;;;;5093421;28;19950;-76
2023/07/09 10:33:11;;;;;;;;;;;33.80;91.80;;;;;;5077785;28;19924;-76
2023/07/09 10:35:53;;;;;;;;;;;34.00;91.00;;;;;;5081341;28;19931;-76
2023/07/09 10:38:18;;;;;;;;;;;34.20;91.80;;;;;;5072102;28;19935;-78
2023/07/09 10:40:47;;;;;;;;;;;34.30;90.50;;;;;;5090229;28;19928;-77
2023/07/09 10:43:16;;;;;;;;;;;34.30;90.80;;;;;;5073235;28;19928;-76
2023/07/09 10:45:43;;;;;;;;;;;34.50;90.80;;;;;;5068996;28;20008;-78
2023/07/09 10:48:13;;;;;;;;;;;34.60;90.10;;;;;;5060991;28;19967;-76
2023/07/09 10:50:44;;;;;;;;;;;34.50;90.40;;;;;;5058803;28;19957;-77
2023/07/09 10:53:15;;;;;;;;;;;34.50;90.90;;;;;;5070730;28;19935;-77
2023/07/09 10:55:53;;;;;;;;;;;34.60;89.60;;;;;;5064751;28;20493;-75
2023/07/09 10:58:18;;;;;;;;;;;34.60;90.10;;;;;;5087664;28;19934;-78
2023/07/09 11:00:44;;;;;;;;;;;34.60;89.10;;;;;;5085193;28;20514;-77
2023/07/09 11:03:16;;;;;;;;;;;34.60;88.80;;;;;;5074460;28;19928;-76
2023/07/09 11:05:41;;;;;;;;;;;34.60;90.10;;;;;;5061940;28;19999;-76
2023/07/09 11:08:12;;;;;;;;;;;34.60;88.10;;;;;;5084922;28;19930;-76
2023/07/09 11:10:40;;;;;;;;;;;34.70;88.50;;;;;;5055172;28;20359;-76
2023/07/09 11:13:19;;;;;;;;;;;34.90;89.10;;;;;;5078497;28;19963;-75
2023/07/09 11:15:47;;;;;;;;;;;35.20;86.70;;;;;;5096565;28;20297;-76
2023/07/09 11:18:20;;;;;;;;;;;35.40;86.80;;;;;;5074326;28;19938;-78
2023/07/09 11:20:45;;;;;;;;;;;35.60;85.60;;;;;;5057846;28;19980;-76
2023/07/09 11:23:17;;;;;;;;;;;35.60;84.90;;;;;;5070793;28;19932;-76
2023/07/09 11:25:44;;;;;;;;;;;35.60;86.30;;;;;;5069390;28;19927;-77
2023/07/09 11:28:10;;;;;;;;;;;35.70;86.80;;;;;;5067610;28;19988;-76
2023/07/09 11:30:50;;;;;;;;;;;35.70;84.70;;;;;;5070397;28;19920;-76
2023/07/09 11:33:33;;;;;;;;;;;35.80;85.00;;;;;;5077775;28;20014;-76
2023/07/09 11:36:10;;;;;;;;;;;35.80;83.40;;;;;;5071911;28;19971;-77
2023/07/09 11:38:54;;;;;;;;;;;35.80;86.70;;;;;;5054943;28;20602;-77
2023/07/09 11:41:39;;;;;;;;;;;35.50;84.90;;;;;;5089933;28;19928;-77
2023/07/09 11:44:12;;;;;;;;;;;35.20;83.90;;;;;;5085893;27;19959;-76
2023/07/09 11:46:41;;;;;;;;;;;35.10;85.30;;;;;;5068491;28;19932;-76
2023/07/09 11:49:08;;;;;;;;;;;35.10;84.20;;;;;;5063523;28;19928;-76
2023/07/09 11:51:38;;;;;;;;;;;34.80;84.10;;;;;;5066900;28;20253;-76
2023/07/09 11:54:04;;;;;;;;;;;35.00;84.80;;;;;;5065720;28;19959;-77
2023/07/09 11:56:31;;;;;;;;;;;34.60;85.10;;;;;;5062630;28;19924;-77
2023/07/09 11:58:57;;;;;;;;;;;34.50;84.80;;;;;;5065059;28;20390;-76
2023/07/09 12:01:32;;;;;;;;;;;34.30;84.60;;;;;;5063613;28;20051;-76
2023/07/09 12:03:58;;;;;;;;;;;34.40;84.40;;;;;;5082308;28;19977;-76
2023/07/09 12:06:26;;;;;;;;;;;34.60;84.20;;;;;;5076904;28;19932;-78
2023/07/09 12:08:52;;;;;;;;;;;34.60;83.90;;;;;;5063021;28;20002;-77
2023/07/09 12:11:23;;;;;;;;;;;34.80;84.00;;;;;;5061944;28;19932;-77
2023/07/09 12:13:49;;;;;;;;;;;35.00;82.50;;;;;;5062134;28;19935;-77
2023/07/09 12:16:25;;;;;;;;;;;35.10;85.70;;;;;;5066482;27;19924;-77
2023/07/09 12:18:52;;;;;;;;;;;35.00;82.80;;;;;;5079055;27;19935;-77
2023/07/09 12:21:18;;;;;;;;;;;34.80;83.20;;;;;;5063752;28;19924;-78
2023/07/09 12:23:44;;;;;;;;;;;35.00;82.80;;;;;;5062330;28;19951;-77
2023/07/09 12:26:14;;;;;;;;;;;34.20;83.10;;;;;;5062285;28;20027;-78
2023/07/09 12:28:40;;;;;;;;;;;33.90;83.70;;;;;;5059647;28;20298;-78
2023/07/09 12:31:12;;;;;;;;;;;33.60;83.50;;;;;;5082049;27;19920;-76
2023/07/09 12:33:37;;;;;;;;;;;33.30;83.30;;;;;;5079588;28;19932;-76
2023/07/09 12:36:04;;;;;;;;;;;33.00;83.00;;;;;;5080608;27;20283;-77
2023/07/09 12:38:33;;;;;;;;;;;32.60;84.50;;;;;;5072604;28;19927;-77
2023/07/09 12:41:00;;;;;;;;;;;32.20;84.80;;;;;;5068609;28;19975;-77
2023/07/09 12:43:27;;;;;;;;;;;31.90;85.70;;;;;;5064040;28;19939;-79
2023/07/09 12:45:53;;;;;;;;;;;31.70;86.30;;;;;;5068144;28;19938;-78
2023/07/09 12:48:25;;;;;;;;;;;31.40;87.60;;;;;;5055261;28;20002;-77
2023/07/09 12:50:51;;;;;;;;;;;31.10;88.00;;;;;;5057451;28;20019;-75
2023/07/09 12:53:18;;;;;;;;;;;30.80;89.40;;;;;;5067402;28;20526;-77
2023/07/09 12:55:45;;;;;;;;;;;30.50;89.60;;;;;;5067737;28;19928;-77
2023/07/09 12:58:20;;;;;;;;;;;30.10;89.70;;;;;;5091034;28;19935;-76
2023/07/09 13:00:51;;;;;;;;;;;29.70;90.60;;;;;;5079295;28;19974;-77
2023/07/09 13:03:21;;;;;;;;;;;29.20;90.80;;;;;;5066497;28;19932;-79
2023/07/09 13:05:54;;;;;;;;;;;28.80;91.30;;;;;;5064051;28;20616;-76
2023/07/09 13:08:19;;;;;;;;;;;28.50;91.50;;;;;;5081813;27;20375;-77
2023/07/09 13:10:50;;;;;;;;;;;28.30;92.30;;;;;;5066373;28;20811;-79
2023/07/09 13:13:16;;;;;;;;;;;28.00;92.40;;;;;;5076913;28;19924;-78
2023/07/09 13:15:43;;;;;;;;;;;27.80;93.30;;;;;;5074832;28;22681;-78
2023/07/09 13:18:13;;;;;;;;;;;27.80;93.70;;;;;;5066855;28;19985;-76
2023/07/09 13:20:41;;;;;;;;;;;27.80;94.00;;;;;;5051600;28;20291;-77
2023/07/09 13:23:11;;;;;;;;;;;27.70;94.90;;;;;;5071531;28;20014;-77
2023/07/09 13:25:41;;;;;;;;;;;27.70;95.50;;;;;;5061423;28;20119;-77
2023/07/09 13:28:26;;;;;;;;;;;27.60;95.20;;;;;;5080613;28;19924;-77
2023/07/09 13:30:53;;;;;;;;;;;27.50;94.80;;;;;;5063475;28;19978;-77
2023/07/09 13:33:19;;;;;;;;;;;27.50;97.10;;;;;;5060132;28;19967;-76
2023/07/09 13:35:45;;;;;;;;;;;27.50;98.10;;;;;;5058037;28;21821;-76
2023/07/09 13:38:15;;;;;;;;;;;27.50;98.20;;;;;;5077144;28;19932;-77
2023/07/09 13:40:42;;;;;;;;;;;27.30;95.00;;;;;;5062487;28;19977;-75
2023/07/09 13:43:11;;;;;;;;;;;27.00;96.30;;;;;;5061988;28;19935;-77
2023/07/09 13:45:37;;;;;;;;;;;27.00;95.70;;;;;;5045181;28;19930;-77
2023/07/09 13:48:04;;;;;;;;;;;26.90;95.50;;;;;;5077626;28;20116;-77
2023/07/09 13:50:30;;;;;;;;;;;27.30;98.00;;;;;;5070992;28;21558;-76
2023/07/09 13:52:55;;;;;;;;;;;27.70;97.40;;;;;;5069710;28;19935;-75
2023/07/09 13:55:23;;;;;;;;;;;28.10;97.60;;;;;;5090598;28;19927;-75
2023/07/09 13:57:49;;;;;;;;;;;28.60;97.40;;;;;;5066805;28;19928;-76
2023/07/09 14:00:15;;;;;;;;;;;29.00;96.20;;;;;;5071641;28;19985;-76
2023/07/09 14:02:41;;;;;;;;;;;29.30;96.10;;;;;;5070509;28;19931;-78
2023/07/09 14:05:08;;;;;;;;;;;29.50;94.80;;;;;;5051168;28;19932;-77
2023/07/09 14:07:35;;;;;;;;;;;29.50;94.90;;;;;;5067034;28;20453;-76
2023/07/09 14:10:01;;;;;;;;;;;29.20;94.50;;;;;;5051155;28;19934;-76
2023/07/09 14:12:28;;;;;;;;;;;28.60;94.70;;;;;;5067603;28;20371;-78
2023/07/09 14:14:56;;;;;;;;;;;28.00;95.30;;;;;;5083547;28;19924;-77
2023/07/09 14:17:23;;;;;;;;;;;27.40;95.80;;;;;;5068176;28;20389;-76
2023/07/09 14:19:48;;;;;;;;;;;26.90;96.00;;;;;;5063474;28;19936;-77
2023/07/09 14:22:20;;;;;;;;;;;26.50;97.00;;;;;;5063682;28;19932;-76
2023/07/09 14:24:46;;;;;;;;;;;26.40;97.70;;;;;;5072374;27;19928;-78
2023/07/09 14:27:12;;;;;;;;;;;26.20;97.70;;;;;;5064160;28;20288;-76
2023/07/09 14:29:37;;;;;;;;;;;26.10;97.20;;;;;;5045351;28;19935;-77
2023/07/09 14:32:04;;;;;;;;;;;26.00;98.20;;;;;;5073676;28;19938;-76
2023/07/09 14:34:32;;;;;;;;;;;25.80;97.70;;;;;;5062231;28;20413;-73
2023/07/09 14:36:59;;;;;;;;;;;25.70;99.00;;;;;;5081210;28;19932;-73
2023/07/09 14:39:25;;;;;;;;;;;25.50;99.00;;;;;;5062816;28;19924;-73
2023/07/09 14:41:51;;;;;;;;;;;25.50;98.40;;;;;;5065639;28;20222;-73
2023/07/09 14:44:30;;;;;;;;;;;25.50;98.80;;;;;;5082335;28;20271;-73
2023/07/09 14:46:57;;;;;;;;;;;25.50;99.70;;;;;;5043575;28;20082;-72
2023/07/09 14:49:23;;;;;;;;;;;25.40;99.50;;;;;;5060880;28;20015;-74
2023/07/09 14:51:51;;;;;;;;;;;25.50;99.40;;;;;;5045259;28;19937;-74
2023/07/09 14:54:24;;;;;;;;;;;25.50;99.20;;;;;;5087070;28;20072;-72
2023/07/09 14:56:50;;;;;;;;;;;25.40;98.50;;;;;;5084953;28;19924;-73
2023/07/09 14:59:16;;;;;;;;;;;25.50;99.20;;;;;;5069081;28;19935;-72
2023/07/09 15:01:42;;;;;;;;;;;25.30;99.10;;;;;;5069844;28;19951;-72
2023/07/09 15:04:20;;;;;;;;;;;25.40;98.40;;;;;;5058945;28;20017;-73
2023/07/09 15:06:47;;;;;;;;;;;26.30;99.50;;;;;;5078649;28;20397;-73
2023/07/09 15:09:13;;;;;;;;;;;25.50;98.70;;;;;;5065352;28;19938;-73
2023/07/09 15:11:38;;;;;;;;;;;25.50;99.30;;;;;;5051261;28;19932;-73
2023/07/09 15:14:09;;;;;;;;;;;25.50;99.50;;;;;;5088793;28;19923;-73
2023/07/09 15:16:34;;;;;;;;;;;25.50;99.20;;;;;;5062298;28;19928;-73
2023/07/09 15:19:00;;;;;;;;;;;25.40;99.10;;;;;;5064133;28;19935;-73
2023/07/09 15:21:25;;;;;;;;;;;25.30;99.50;;;;;;5077972;28;20325;-72